sensor_id;sensor_type;location;lat;lon;timestamp;P1;durP1;ratioP1;P2;durP2;ratioP2
53062;SDS011;40529;52.172;10.548;2023-04-16T00:02:14;74.82;;;43.13;;
53062;SDS011;40529;52.172;10.548;2023-04-16T00:04:40;74.30;;;42.75;;
53062;SDS011;40529;52.172;10.548;2023-04-16T00:07:06;73.15;;;43.88;;
53062;SDS011;40529;52.172;10.548;2023-04-16T00:09:32;73.50;;;44.35;;
53062;SDS011;40529;52.172;10.548;2023-04-16T00:11:58;72.65;;;44.08;;
53062;SDS011;40529;52.172;10.548;2023-04-16T00:14:25;71.75;;;42.03;;
53062;SDS011;40529;52.172;10.548;2023-04-16T00:16:51;71.65;;;44.05;;
53062;SDS011;40529;52.172;10.548;2023-04-16T00:19:18;77.88;;;45.08;;
53062;SDS011;40529;52.172;10.548;2023-04-16T00:21:44;72.10;;;42.00;;
53062;SDS011;40529;52.172;10.548;2023-04-16T00:24:10;74.53;;;42.47;;
53062;SDS011;40529;52.172;10.548;2023-04-16T00:26:36;71.80;;;43.10;;
53062;SDS011;40529;52.172;10.548;2023-04-16T00:29:02;78.57;;;44.28;;
53062;SDS011;40529;52.172;10.548;2023-04-16T00:31:29;76.68;;;43.13;;
53062;SDS011;40529;52.172;10.548;2023-04-16T00:33:55;76.13;;;44.67;;
53062;SDS011;40529;52.172;10.548;2023-04-16T00:36:25;78.15;;;44.83;;
53062;SDS011;40529;52.172;10.548;2023-04-16T00:38:52;76.43;;;44.65;;
53062;SDS011;40529;52.172;10.548;2023-04-16T00:41:18;76.03;;;44.20;;
53062;SDS011;40529;52.172;10.548;2023-04-16T00:43:44;75.43;;;42.30;;
53062;SDS011;40529;52.172;10.548;2023-04-16T00:46:10;73.25;;;42.88;;
53062;SDS011;40529;52.172;10.548;2023-04-16T00:48:37;73.70;;;43.53;;
53062;SDS011;40529;52.172;10.548;2023-04-16T00:51:04;77.93;;;44.22;;
53062;SDS011;40529;52.172;10.548;2023-04-16T00:53:30;70.25;;;42.55;;
53062;SDS011;40529;52.172;10.548;2023-04-16T00:55:57;71.70;;;41.92;;
53062;SDS011;40529;52.172;10.548;2023-04-16T00:58:24;78.88;;;45.65;;
53062;SDS011;40529;52.172;10.548;2023-04-16T01:00:50;75.15;;;43.65;;
53062;SDS011;40529;52.172;10.548;2023-04-16T01:03:16;78.20;;;43.60;;
53062;SDS011;40529;52.172;10.548;2023-04-16T01:05:42;84.53;;;46.33;;
53062;SDS011;40529;52.172;10.548;2023-04-16T01:08:16;86.60;;;46.78;;
53062;SDS011;40529;52.172;10.548;2023-04-16T01:10:42;85.35;;;46.40;;
53062;SDS011;40529;52.172;10.548;2023-04-16T01:13:08;82.15;;;44.47;;
53062;SDS011;40529;52.172;10.548;2023-04-16T01:15:35;83.60;;;45.58;;
53062;SDS011;40529;52.172;10.548;2023-04-16T01:18:01;70.82;;;42.13;;
53062;SDS011;40529;52.172;10.548;2023-04-16T01:20:28;77.30;;;43.13;;
53062;SDS011;40529;52.172;10.548;2023-04-16T01:22:54;81.75;;;43.83;;
53062;SDS011;40529;52.172;10.548;2023-04-16T01:25:20;81.18;;;43.60;;
53062;SDS011;40529;52.172;10.548;2023-04-16T01:27:49;77.00;;;42.20;;
53062;SDS011;40529;52.172;10.548;2023-04-16T01:32:42;81.05;;;42.25;;
53062;SDS011;40529;52.172;10.548;2023-04-16T01:35:08;82.18;;;43.05;;
53062;SDS011;40529;52.172;10.548;2023-04-16T01:37:34;80.00;;;41.88;;
53062;SDS011;40529;52.172;10.548;2023-04-16T01:40:00;81.50;;;42.28;;
53062;SDS011;40529;52.172;10.548;2023-04-16T01:42:26;79.55;;;42.17;;
53062;SDS011;40529;52.172;10.548;2023-04-16T01:44:52;73.95;;;41.35;;
53062;SDS011;40529;52.172;10.548;2023-04-16T01:47:18;78.82;;;42.38;;
53062;SDS011;40529;52.172;10.548;2023-04-16T01:49:44;78.35;;;42.20;;
53062;SDS011;40529;52.172;10.548;2023-04-16T01:52:12;75.43;;;41.05;;
53062;SDS011;40529;52.172;10.548;2023-04-16T01:54:38;74.47;;;41.45;;
53062;SDS011;40529;52.172;10.548;2023-04-16T01:57:04;78.60;;;43.53;;
53062;SDS011;40529;52.172;10.548;2023-04-16T01:59:30;82.05;;;44.35;;
53062;SDS011;40529;52.172;10.548;2023-04-16T02:01:56;79.60;;;43.75;;
53062;SDS011;40529;52.172;10.548;2023-04-16T02:04:24;83.57;;;44.17;;
53062;SDS011;40529;52.172;10.548;2023-04-16T02:06:50;77.32;;;43.40;;
53062;SDS011;40529;52.172;10.548;2023-04-16T02:09:16;83.05;;;44.60;;
53062;SDS011;40529;52.172;10.548;2023-04-16T02:11:42;77.85;;;41.42;;
53062;SDS011;40529;52.172;10.548;2023-04-16T02:14:08;81.82;;;44.35;;
53062;SDS011;40529;52.172;10.548;2023-04-16T02:16:34;77.30;;;42.50;;
53062;SDS011;40529;52.172;10.548;2023-04-16T02:19:00;82.82;;;44.55;;
53062;SDS011;40529;52.172;10.548;2023-04-16T02:21:27;89.10;;;46.60;;
53062;SDS011;40529;52.172;10.548;2023-04-16T02:23:53;91.55;;;46.03;;
53062;SDS011;40529;52.172;10.548;2023-04-16T02:26:19;90.80;;;46.85;;
53062;SDS011;40529;52.172;10.548;2023-04-16T02:28:45;93.60;;;46.22;;
53062;SDS011;40529;52.172;10.548;2023-04-16T02:31:13;91.75;;;46.40;;
53062;SDS011;40529;52.172;10.548;2023-04-16T02:33:41;88.75;;;43.42;;
53062;SDS011;40529;52.172;10.548;2023-04-16T02:36:07;90.90;;;45.60;;
53062;SDS011;40529;52.172;10.548;2023-04-16T02:38:35;91.28;;;43.67;;
53062;SDS011;40529;52.172;10.548;2023-04-16T02:41:01;89.53;;;43.95;;
53062;SDS011;40529;52.172;10.548;2023-04-16T02:43:27;85.93;;;43.80;;
53062;SDS011;40529;52.172;10.548;2023-04-16T02:45:53;84.30;;;43.10;;
53062;SDS011;40529;52.172;10.548;2023-04-16T02:48:19;84.18;;;42.13;;
53062;SDS011;40529;52.172;10.548;2023-04-16T02:50:45;74.88;;;40.70;;
53062;SDS011;40529;52.172;10.548;2023-04-16T02:53:11;80.90;;;42.42;;
53062;SDS011;40529;52.172;10.548;2023-04-16T02:55:37;81.10;;;42.63;;
53062;SDS011;40529;52.172;10.548;2023-04-16T02:58:03;90.45;;;43.92;;
53062;SDS011;40529;52.172;10.548;2023-04-16T03:00:29;82.45;;;42.60;;
53062;SDS011;40529;52.172;10.548;2023-04-16T03:02:55;95.25;;;44.28;;
53062;SDS011;40529;52.172;10.548;2023-04-16T03:05:22;92.43;;;46.63;;
53062;SDS011;40529;52.172;10.548;2023-04-16T03:07:48;86.95;;;44.10;;
53062;SDS011;40529;52.172;10.548;2023-04-16T03:10:14;91.30;;;44.42;;
53062;SDS011;40529;52.172;10.548;2023-04-16T03:12:41;90.47;;;42.80;;
53062;SDS011;40529;52.172;10.548;2023-04-16T03:15:07;84.25;;;42.58;;
53062;SDS011;40529;52.172;10.548;2023-04-16T03:17:33;82.20;;;41.55;;
53062;SDS011;40529;52.172;10.548;2023-04-16T03:19:59;92.50;;;42.20;;
53062;SDS011;40529;52.172;10.548;2023-04-16T03:22:25;79.90;;;41.88;;
53062;SDS011;40529;52.172;10.548;2023-04-16T03:24:51;87.38;;;41.45;;
53062;SDS011;40529;52.172;10.548;2023-04-16T03:27:17;76.68;;;40.70;;
53062;SDS011;40529;52.172;10.548;2023-04-16T03:29:43;78.07;;;39.60;;
53062;SDS011;40529;52.172;10.548;2023-04-16T03:32:10;79.28;;;40.40;;
53062;SDS011;40529;52.172;10.548;2023-04-16T03:34:36;80.60;;;42.40;;
53062;SDS011;40529;52.172;10.548;2023-04-16T03:37:02;84.43;;;41.78;;
53062;SDS011;40529;52.172;10.548;2023-04-16T03:39:30;76.75;;;38.97;;
53062;SDS011;40529;52.172;10.548;2023-04-16T03:41:56;82.72;;;41.03;;
53062;SDS011;40529;52.172;10.548;2023-04-16T03:44:22;85.30;;;42.70;;
53062;SDS011;40529;52.172;10.548;2023-04-16T03:46:48;80.93;;;41.03;;
53062;SDS011;40529;52.172;10.548;2023-04-16T03:49:14;90.20;;;44.85;;
53062;SDS011;40529;52.172;10.548;2023-04-16T03:51:40;87.95;;;40.63;;
53062;SDS011;40529;52.172;10.548;2023-04-16T03:54:06;87.22;;;41.97;;
53062;SDS011;40529;52.172;10.548;2023-04-16T03:56:32;78.25;;;41.35;;
53062;SDS011;40529;52.172;10.548;2023-04-16T03:58:58;82.38;;;41.72;;
53062;SDS011;40529;52.172;10.548;2023-04-16T04:01:24;83.28;;;39.42;;
53062;SDS011;40529;52.172;10.548;2023-04-16T04:03:50;80.15;;;39.95;;
53062;SDS011;40529;52.172;10.548;2023-04-16T04:06:16;85.53;;;40.80;;
53062;SDS011;40529;52.172;10.548;2023-04-16T04:08:42;84.78;;;41.20;;
53062;SDS011;40529;52.172;10.548;2023-04-16T04:11:08;80.07;;;41.50;;
53062;SDS011;40529;52.172;10.548;2023-04-16T04:13:34;85.18;;;42.05;;
53062;SDS011;40529;52.172;10.548;2023-04-16T04:16:01;86.45;;;40.75;;
53062;SDS011;40529;52.172;10.548;2023-04-16T04:18:27;82.18;;;40.90;;
53062;SDS011;40529;52.172;10.548;2023-04-16T04:20:53;73.03;;;37.78;;
53062;SDS011;40529;52.172;10.548;2023-04-16T04:23:19;91.90;;;42.35;;
53062;SDS011;40529;52.172;10.548;2023-04-16T04:25:45;79.50;;;39.55;;
53062;SDS011;40529;52.172;10.548;2023-04-16T04:28:11;82.30;;;39.00;;
53062;SDS011;40529;52.172;10.548;2023-04-16T04:30:37;82.13;;;39.97;;
53062;SDS011;40529;52.172;10.548;2023-04-16T04:33:03;81.78;;;39.60;;
53062;SDS011;40529;52.172;10.548;2023-04-16T04:35:29;78.78;;;39.17;;
53062;SDS011;40529;52.172;10.548;2023-04-16T04:37:55;77.55;;;38.92;;
53062;SDS011;40529;52.172;10.548;2023-04-16T04:40:21;77.07;;;39.53;;
53062;SDS011;40529;52.172;10.548;2023-04-16T04:42:47;79.43;;;40.53;;
53062;SDS011;40529;52.172;10.548;2023-04-16T04:45:13;81.93;;;39.83;;
53062;SDS011;40529;52.172;10.548;2023-04-16T04:47:39;81.13;;;38.80;;
53062;SDS011;40529;52.172;10.548;2023-04-16T04:50:05;85.75;;;38.78;;
53062;SDS011;40529;52.172;10.548;2023-04-16T04:52:32;83.75;;;41.13;;
53062;SDS011;40529;52.172;10.548;2023-04-16T04:54:58;85.93;;;40.80;;
53062;SDS011;40529;52.172;10.548;2023-04-16T04:57:24;88.72;;;42.30;;
53062;SDS011;40529;52.172;10.548;2023-04-16T04:59:50;83.88;;;39.63;;
53062;SDS011;40529;52.172;10.548;2023-04-16T05:02:16;89.63;;;41.63;;
53062;SDS011;40529;52.172;10.548;2023-04-16T05:04:42;86.68;;;42.05;;
53062;SDS011;40529;52.172;10.548;2023-04-16T05:07:08;83.22;;;40.85;;
53062;SDS011;40529;52.172;10.548;2023-04-16T05:09:34;85.03;;;40.00;;
53062;SDS011;40529;52.172;10.548;2023-04-16T05:12:00;84.70;;;40.38;;
53062;SDS011;40529;52.172;10.548;2023-04-16T05:14:27;92.70;;;41.53;;
53062;SDS011;40529;52.172;10.548;2023-04-16T05:16:53;86.60;;;39.80;;
53062;SDS011;40529;52.172;10.548;2023-04-16T05:19:19;88.50;;;42.50;;
53062;SDS011;40529;52.172;10.548;2023-04-16T05:21:45;87.38;;;42.47;;
53062;SDS011;40529;52.172;10.548;2023-04-16T05:24:11;85.88;;;41.03;;
53062;SDS011;40529;52.172;10.548;2023-04-16T05:26:37;87.60;;;41.05;;
53062;SDS011;40529;52.172;10.548;2023-04-16T05:29:03;89.03;;;42.30;;
53062;SDS011;40529;52.172;10.548;2023-04-16T05:31:29;89.10;;;42.08;;
53062;SDS011;40529;52.172;10.548;2023-04-16T05:33:55;91.65;;;40.72;;
53062;SDS011;40529;52.172;10.548;2023-04-16T05:36:21;85.03;;;40.95;;
53062;SDS011;40529;52.172;10.548;2023-04-16T05:38:47;82.05;;;39.45;;
53062;SDS011;40529;52.172;10.548;2023-04-16T05:41:13;87.60;;;41.25;;
53062;SDS011;40529;52.172;10.548;2023-04-16T05:43:39;82.50;;;39.22;;
53062;SDS011;40529;52.172;10.548;2023-04-16T05:46:06;88.40;;;40.50;;
53062;SDS011;40529;52.172;10.548;2023-04-16T05:48:32;86.60;;;41.17;;
53062;SDS011;40529;52.172;10.548;2023-04-16T05:50:58;82.45;;;39.38;;
53062;SDS011;40529;52.172;10.548;2023-04-16T05:53:24;89.38;;;42.70;;
53062;SDS011;40529;52.172;10.548;2023-04-16T05:55:50;90.40;;;42.28;;
53062;SDS011;40529;52.172;10.548;2023-04-16T05:58:16;86.20;;;39.65;;
53062;SDS011;40529;52.172;10.548;2023-04-16T06:00:42;87.68;;;40.95;;
53062;SDS011;40529;52.172;10.548;2023-04-16T06:03:08;86.00;;;40.80;;
53062;SDS011;40529;52.172;10.548;2023-04-16T06:05:34;85.95;;;40.03;;
53062;SDS011;40529;52.172;10.548;2023-04-16T06:08:00;87.75;;;40.15;;
53062;SDS011;40529;52.172;10.548;2023-04-16T06:10:26;84.13;;;39.90;;
53062;SDS011;40529;52.172;10.548;2023-04-16T06:12:52;75.85;;;37.40;;
53062;SDS011;40529;52.172;10.548;2023-04-16T06:15:18;81.85;;;40.72;;
53062;SDS011;40529;52.172;10.548;2023-04-16T06:17:44;79.18;;;37.30;;
53062;SDS011;40529;52.172;10.548;2023-04-16T06:20:10;77.32;;;37.05;;
53062;SDS011;40529;52.172;10.548;2023-04-16T06:22:37;80.38;;;39.60;;
53062;SDS011;40529;52.172;10.548;2023-04-16T06:25:03;83.40;;;39.95;;
53062;SDS011;40529;52.172;10.548;2023-04-16T06:27:29;90.85;;;41.60;;
53062;SDS011;40529;52.172;10.548;2023-04-16T06:29:56;82.53;;;40.78;;
53062;SDS011;40529;52.172;10.548;2023-04-16T06:32:22;89.78;;;41.78;;
53062;SDS011;40529;52.172;10.548;2023-04-16T06:34:48;84.35;;;39.33;;
53062;SDS011;40529;52.172;10.548;2023-04-16T06:37:14;82.38;;;40.38;;
53062;SDS011;40529;52.172;10.548;2023-04-16T06:39:40;82.30;;;39.53;;
53062;SDS011;40529;52.172;10.548;2023-04-16T06:42:06;95.13;;;41.80;;
53062;SDS011;40529;52.172;10.548;2023-04-16T06:44:34;89.28;;;42.42;;
53062;SDS011;40529;52.172;10.548;2023-04-16T06:47:00;88.80;;;41.78;;
53062;SDS011;40529;52.172;10.548;2023-04-16T06:49:26;95.57;;;42.25;;
53062;SDS011;40529;52.172;10.548;2023-04-16T06:51:52;99.03;;;44.00;;
53062;SDS011;40529;52.172;10.548;2023-04-16T06:54:18;94.10;;;43.25;;
53062;SDS011;40529;52.172;10.548;2023-04-16T06:56:44;92.95;;;43.45;;
53062;SDS011;40529;52.172;10.548;2023-04-16T06:59:10;95.05;;;43.33;;
53062;SDS011;40529;52.172;10.548;2023-04-16T07:01:36;93.28;;;42.55;;
53062;SDS011;40529;52.172;10.548;2023-04-16T07:04:02;96.20;;;43.78;;
53062;SDS011;40529;52.172;10.548;2023-04-16T07:06:28;98.13;;;44.03;;
53062;SDS011;40529;52.172;10.548;2023-04-16T07:08:54;101.32;;;43.47;;
53062;SDS011;40529;52.172;10.548;2023-04-16T07:11:20;100.45;;;45.60;;
53062;SDS011;40529;52.172;10.548;2023-04-16T07:13:46;90.82;;;42.33;;
53062;SDS011;40529;52.172;10.548;2023-04-16T07:16:12;98.30;;;46.63;;
53062;SDS011;40529;52.172;10.548;2023-04-16T07:18:38;100.82;;;45.80;;
53062;SDS011;40529;52.172;10.548;2023-04-16T07:21:04;103.07;;;45.50;;
53062;SDS011;40529;52.172;10.548;2023-04-16T07:23:30;96.95;;;44.30;;
53062;SDS011;40529;52.172;10.548;2023-04-16T07:25:57;101.25;;;44.20;;
53062;SDS011;40529;52.172;10.548;2023-04-16T07:28:23;98.28;;;46.65;;
53062;SDS011;40529;52.172;10.548;2023-04-16T07:30:49;97.65;;;44.65;;
53062;SDS011;40529;52.172;10.548;2023-04-16T07:33:15;87.03;;;41.15;;
53062;SDS011;40529;52.172;10.548;2023-04-16T07:35:41;94.63;;;43.80;;
53062;SDS011;40529;52.172;10.548;2023-04-16T07:38:09;93.85;;;41.88;;
53062;SDS011;40529;52.172;10.548;2023-04-16T07:40:35;95.63;;;43.85;;
53062;SDS011;40529;52.172;10.548;2023-04-16T07:43:01;88.75;;;42.92;;
53062;SDS011;40529;52.172;10.548;2023-04-16T07:45:27;96.68;;;42.58;;
53062;SDS011;40529;52.172;10.548;2023-04-16T07:47:53;95.93;;;42.17;;
53062;SDS011;40529;52.172;10.548;2023-04-16T07:50:20;89.03;;;40.50;;
53062;SDS011;40529;52.172;10.548;2023-04-16T07:52:46;91.30;;;42.25;;
53062;SDS011;40529;52.172;10.548;2023-04-16T07:55:12;86.38;;;41.70;;
53062;SDS011;40529;52.172;10.548;2023-04-16T07:57:39;84.75;;;41.58;;
53062;SDS011;40529;52.172;10.548;2023-04-16T08:00:06;88.53;;;41.60;;
53062;SDS011;40529;52.172;10.548;2023-04-16T08:02:32;84.35;;;39.92;;
53062;SDS011;40529;52.172;10.548;2023-04-16T08:04:58;89.13;;;42.13;;
53062;SDS011;40529;52.172;10.548;2023-04-16T08:07:24;87.82;;;41.78;;
53062;SDS011;40529;52.172;10.548;2023-04-16T08:09:51;86.90;;;40.88;;
53062;SDS011;40529;52.172;10.548;2023-04-16T08:12:17;89.55;;;42.47;;
53062;SDS011;40529;52.172;10.548;2023-04-16T08:14:44;82.65;;;39.78;;
53062;SDS011;40529;52.172;10.548;2023-04-16T08:17:10;84.50;;;40.63;;
53062;SDS011;40529;52.172;10.548;2023-04-16T08:19:37;82.53;;;39.22;;
53062;SDS011;40529;52.172;10.548;2023-04-16T08:22:03;80.18;;;39.50;;
53062;SDS011;40529;52.172;10.548;2023-04-16T08:24:29;77.55;;;38.20;;
53062;SDS011;40529;52.172;10.548;2023-04-16T08:26:55;75.20;;;39.50;;
53062;SDS011;40529;52.172;10.548;2023-04-16T08:29:21;77.45;;;38.10;;
53062;SDS011;40529;52.172;10.548;2023-04-16T08:31:50;74.93;;;36.47;;
53062;SDS011;40529;52.172;10.548;2023-04-16T08:34:16;72.63;;;36.83;;
53062;SDS011;40529;52.172;10.548;2023-04-16T08:36:42;76.55;;;37.38;;
53062;SDS011;40529;52.172;10.548;2023-04-16T08:39:08;72.05;;;35.95;;
53062;SDS011;40529;52.172;10.548;2023-04-16T08:41:35;73.32;;;35.17;;
53062;SDS011;40529;52.172;10.548;2023-04-16T08:44:04;73.07;;;35.05;;
53062;SDS011;40529;52.172;10.548;2023-04-16T08:46:32;66.00;;;33.60;;
53062;SDS011;40529;52.172;10.548;2023-04-16T08:49:01;65.88;;;33.88;;
53062;SDS011;40529;52.172;10.548;2023-04-16T08:51:28;61.85;;;32.60;;
53062;SDS011;40529;52.172;10.548;2023-04-16T08:54:07;67.45;;;34.20;;
53062;SDS011;40529;52.172;10.548;2023-04-16T08:56:35;68.43;;;34.28;;
53062;SDS011;40529;52.172;10.548;2023-04-16T08:59:01;66.03;;;33.15;;
53062;SDS011;40529;52.172;10.548;2023-04-16T09:01:34;50.00;;;24.48;;
53062;SDS011;40529;52.172;10.548;2023-04-16T09:04:00;62.67;;;32.85;;
53062;SDS011;40529;52.172;10.548;2023-04-16T09:06:26;59.50;;;31.13;;
53062;SDS011;40529;52.172;10.548;2023-04-16T09:08:52;61.53;;;31.70;;
53062;SDS011;40529;52.172;10.548;2023-04-16T09:11:19;57.08;;;30.48;;
53062;SDS011;40529;52.172;10.548;2023-04-16T09:13:46;59.70;;;30.85;;
53062;SDS011;40529;52.172;10.548;2023-04-16T09:16:12;56.05;;;29.48;;
53062;SDS011;40529;52.172;10.548;2023-04-16T09:18:39;57.60;;;29.80;;
53062;SDS011;40529;52.172;10.548;2023-04-16T09:21:06;55.53;;;29.80;;
53062;SDS011;40529;52.172;10.548;2023-04-16T09:23:34;56.35;;;29.88;;
53062;SDS011;40529;52.172;10.548;2023-04-16T09:26:00;58.10;;;29.58;;
53062;SDS011;40529;52.172;10.548;2023-04-16T09:28:42;56.97;;;29.40;;
53062;SDS011;40529;52.172;10.548;2023-04-16T09:31:12;47.00;;;26.17;;
53062;SDS011;40529;52.172;10.548;2023-04-16T09:33:38;48.38;;;26.05;;
53062;SDS011;40529;52.172;10.548;2023-04-16T09:36:05;52.42;;;28.05;;
53062;SDS011;40529;52.172;10.548;2023-04-16T09:38:47;52.17;;;27.67;;
53062;SDS011;40529;52.172;10.548;2023-04-16T09:41:14;45.65;;;24.70;;
53062;SDS011;40529;52.172;10.548;2023-04-16T09:43:40;43.50;;;25.00;;
53062;SDS011;40529;52.172;10.548;2023-04-16T09:46:06;44.60;;;25.33;;
53062;SDS011;40529;52.172;10.548;2023-04-16T09:51:04;41.40;;;23.35;;
53062;SDS011;40529;52.172;10.548;2023-04-16T09:53:30;40.03;;;23.95;;
53062;SDS011;40529;52.172;10.548;2023-04-16T09:56:04;42.40;;;23.58;;
53062;SDS011;40529;52.172;10.548;2023-04-16T09:58:30;36.95;;;21.55;;
53062;SDS011;40529;52.172;10.548;2023-04-16T10:01:00;39.58;;;22.05;;
53062;SDS011;40529;52.172;10.548;2023-04-16T10:05:52;39.72;;;22.73;;
53062;SDS011;40529;52.172;10.548;2023-04-16T10:08:18;39.53;;;22.48;;
53062;SDS011;40529;52.172;10.548;2023-04-16T10:10:44;38.00;;;22.08;;
53062;SDS011;40529;52.172;10.548;2023-04-16T10:13:11;39.40;;;22.90;;
53062;SDS011;40529;52.172;10.548;2023-04-16T10:15:41;36.35;;;22.23;;
53062;SDS011;40529;52.172;10.548;2023-04-16T10:18:07;42.63;;;24.50;;
53062;SDS011;40529;52.172;10.548;2023-04-16T10:20:34;42.15;;;23.65;;
53062;SDS011;40529;52.172;10.548;2023-04-16T10:23:01;42.28;;;24.92;;
53062;SDS011;40529;52.172;10.548;2023-04-16T10:25:27;42.08;;;24.75;;
53062;SDS011;40529;52.172;10.548;2023-04-16T10:27:55;43.30;;;24.55;;
53062;SDS011;40529;52.172;10.548;2023-04-16T10:30:21;43.30;;;23.70;;
53062;SDS011;40529;52.172;10.548;2023-04-16T10:32:50;35.05;;;19.88;;
53062;SDS011;40529;52.172;10.548;2023-04-16T10:35:20;42.58;;;24.73;;
53062;SDS011;40529;52.172;10.548;2023-04-16T10:37:46;44.17;;;25.08;;
53062;SDS011;40529;52.172;10.548;2023-04-16T10:40:25;44.60;;;25.45;;
53062;SDS011;40529;52.172;10.548;2023-04-16T10:42:58;43.93;;;25.80;;
53062;SDS011;40529;52.172;10.548;2023-04-16T10:45:29;45.35;;;25.88;;
53062;SDS011;40529;52.172;10.548;2023-04-16T10:47:56;46.85;;;26.17;;
53062;SDS011;40529;52.172;10.548;2023-04-16T10:50:22;46.47;;;26.63;;
53062;SDS011;40529;52.172;10.548;2023-04-16T10:53:05;49.05;;;26.95;;
53062;SDS011;40529;52.172;10.548;2023-04-16T10:55:37;51.60;;;27.75;;
53062;SDS011;40529;52.172;10.548;2023-04-16T11:00:49;52.13;;;28.23;;
53062;SDS011;40529;52.172;10.548;2023-04-16T11:03:16;51.88;;;29.73;;
53062;SDS011;40529;52.172;10.548;2023-04-16T11:05:45;54.10;;;29.98;;
53062;SDS011;40529;52.172;10.548;2023-04-16T11:08:14;55.80;;;29.90;;
53062;SDS011;40529;52.172;10.548;2023-04-16T11:10:41;43.73;;;23.33;;
53062;SDS011;40529;52.172;10.548;2023-04-16T11:13:07;52.85;;;30.02;;
53062;SDS011;40529;52.172;10.548;2023-04-16T11:15:33;55.85;;;29.40;;
53062;SDS011;40529;52.172;10.548;2023-04-16T11:18:00;56.60;;;30.08;;
53062;SDS011;40529;52.172;10.548;2023-04-16T11:20:27;50.70;;;28.08;;
53062;SDS011;40529;52.172;10.548;2023-04-16T11:22:54;55.45;;;29.27;;
53062;SDS011;40529;52.172;10.548;2023-04-16T11:25:21;48.85;;;27.88;;
53062;SDS011;40529;52.172;10.548;2023-04-16T11:27:48;48.47;;;27.30;;
53062;SDS011;40529;52.172;10.548;2023-04-16T11:30:14;47.15;;;28.40;;
53062;SDS011;40529;52.172;10.548;2023-04-16T11:32:40;46.28;;;27.23;;
53062;SDS011;40529;52.172;10.548;2023-04-16T11:35:13;50.35;;;29.25;;
53062;SDS011;40529;52.172;10.548;2023-04-16T11:37:40;54.30;;;29.65;;
53062;SDS011;40529;52.172;10.548;2023-04-16T11:40:06;48.72;;;29.70;;
53062;SDS011;40529;52.172;10.548;2023-04-16T11:42:36;46.30;;;27.65;;
53062;SDS011;40529;52.172;10.548;2023-04-16T11:45:04;49.45;;;28.52;;
53062;SDS011;40529;52.172;10.548;2023-04-16T11:47:31;46.00;;;28.67;;
53062;SDS011;40529;52.172;10.548;2023-04-16T11:49:57;49.42;;;28.27;;
53062;SDS011;40529;52.172;10.548;2023-04-16T11:52:26;49.25;;;29.05;;
53062;SDS011;40529;52.172;10.548;2023-04-16T11:54:52;47.35;;;28.75;;
53062;SDS011;40529;52.172;10.548;2023-04-16T11:57:25;49.10;;;27.95;;
53062;SDS011;40529;52.172;10.548;2023-04-16T11:59:51;48.88;;;30.25;;
53062;SDS011;40529;52.172;10.548;2023-04-16T12:02:25;48.17;;;29.02;;
53062;SDS011;40529;52.172;10.548;2023-04-16T12:04:58;49.92;;;29.58;;
53062;SDS011;40529;52.172;10.548;2023-04-16T12:07:24;49.70;;;29.35;;
53062;SDS011;40529;52.172;10.548;2023-04-16T12:10:03;48.33;;;28.30;;
53062;SDS011;40529;52.172;10.548;2023-04-16T12:12:30;46.80;;;28.10;;
53062;SDS011;40529;52.172;10.548;2023-04-16T12:14:56;48.35;;;28.25;;
53062;SDS011;40529;52.172;10.548;2023-04-16T12:17:27;52.58;;;30.65;;
53062;SDS011;40529;52.172;10.548;2023-04-16T12:20:00;50.92;;;28.60;;
53062;SDS011;40529;52.172;10.548;2023-04-16T12:22:33;50.60;;;27.85;;
53062;SDS011;40529;52.172;10.548;2023-04-16T12:27:39;47.28;;;27.73;;
53062;SDS011;40529;52.172;10.548;2023-04-16T12:30:05;52.05;;;28.73;;
53062;SDS011;40529;52.172;10.548;2023-04-16T12:32:32;51.53;;;28.17;;
53062;SDS011;40529;52.172;10.548;2023-04-16T12:34:58;51.63;;;28.65;;
53062;SDS011;40529;52.172;10.548;2023-04-16T12:37:24;48.13;;;27.38;;
53062;SDS011;40529;52.172;10.548;2023-04-16T12:39:50;42.50;;;27.30;;
53062;SDS011;40529;52.172;10.548;2023-04-16T12:42:16;51.97;;;27.73;;
53062;SDS011;40529;52.172;10.548;2023-04-16T12:44:42;41.25;;;25.67;;
53062;SDS011;40529;52.172;10.548;2023-04-16T12:47:08;41.10;;;25.52;;
53062;SDS011;40529;52.172;10.548;2023-04-16T12:49:35;39.80;;;25.20;;
53062;SDS011;40529;52.172;10.548;2023-04-16T12:52:01;44.63;;;26.40;;
53062;SDS011;40529;52.172;10.548;2023-04-16T12:54:27;47.20;;;27.00;;
53062;SDS011;40529;52.172;10.548;2023-04-16T12:56:55;43.50;;;25.67;;
53062;SDS011;40529;52.172;10.548;2023-04-16T12:59:21;40.95;;;24.83;;
53062;SDS011;40529;52.172;10.548;2023-04-16T13:01:47;40.35;;;24.75;;
53062;SDS011;40529;52.172;10.548;2023-04-16T13:04:13;36.60;;;24.05;;
53062;SDS011;40529;52.172;10.548;2023-04-16T13:06:40;37.85;;;23.55;;
53062;SDS011;40529;52.172;10.548;2023-04-16T13:09:06;40.97;;;26.38;;
53062;SDS011;40529;52.172;10.548;2023-04-16T13:11:32;37.47;;;23.50;;
53062;SDS011;40529;52.172;10.548;2023-04-16T13:13:58;34.63;;;21.98;;
53062;SDS011;40529;52.172;10.548;2023-04-16T13:16:24;38.28;;;23.05;;
53062;SDS011;40529;52.172;10.548;2023-04-16T13:18:50;34.28;;;23.55;;
53062;SDS011;40529;52.172;10.548;2023-04-16T13:21:16;40.10;;;24.02;;
53062;SDS011;40529;52.172;10.548;2023-04-16T13:23:42;36.40;;;23.73;;
53062;SDS011;40529;52.172;10.548;2023-04-16T13:26:08;35.83;;;22.92;;
53062;SDS011;40529;52.172;10.548;2023-04-16T13:28:34;35.63;;;23.85;;
53062;SDS011;40529;52.172;10.548;2023-04-16T13:31:00;40.55;;;24.10;;
53062;SDS011;40529;52.172;10.548;2023-04-16T13:33:26;36.03;;;23.60;;
53062;SDS011;40529;52.172;10.548;2023-04-16T13:35:52;35.58;;;22.92;;
53062;SDS011;40529;52.172;10.548;2023-04-16T13:38:18;37.78;;;23.15;;
53062;SDS011;40529;52.172;10.548;2023-04-16T13:40:45;33.78;;;21.08;;
53062;SDS011;40529;52.172;10.548;2023-04-16T13:43:11;34.92;;;20.52;;
53062;SDS011;40529;52.172;10.548;2023-04-16T13:45:37;35.08;;;22.45;;
53062;SDS011;40529;52.172;10.548;2023-04-16T13:48:04;35.25;;;22.05;;
53062;SDS011;40529;52.172;10.548;2023-04-16T13:50:30;36.10;;;23.90;;
53062;SDS011;40529;52.172;10.548;2023-04-16T13:52:56;35.40;;;22.23;;
53062;SDS011;40529;52.172;10.548;2023-04-16T13:55:22;33.05;;;22.52;;
53062;SDS011;40529;52.172;10.548;2023-04-16T13:57:48;36.58;;;23.50;;
53062;SDS011;40529;52.172;10.548;2023-04-16T14:00:16;34.15;;;22.38;;
53062;SDS011;40529;52.172;10.548;2023-04-16T14:02:42;38.22;;;23.45;;
53062;SDS011;40529;52.172;10.548;2023-04-16T14:05:09;31.15;;;21.35;;
53062;SDS011;40529;52.172;10.548;2023-04-16T14:07:36;38.50;;;24.20;;
53062;SDS011;40529;52.172;10.548;2023-04-16T14:10:02;37.05;;;23.00;;
53062;SDS011;40529;52.172;10.548;2023-04-16T14:12:29;33.10;;;22.00;;
53062;SDS011;40529;52.172;10.548;2023-04-16T14:14:56;35.22;;;22.73;;
53062;SDS011;40529;52.172;10.548;2023-04-16T14:17:22;34.88;;;22.50;;
53062;SDS011;40529;52.172;10.548;2023-04-16T14:19:48;34.22;;;20.65;;